Mason, MI

5:10 AM EDT on September 01, 2015 (GMT -0400)
Capital City | | Change Station
CLOSE
Current Station
Airport
Location: Lansing,
Elevation: 873 ft
Nearby Weather Stations

Elev 873 ft 42.78 °N, 84.58 °W | Updated 2 minutes ago

Fog
Fog
63 °F
Feels Like 63 °F
N
0
Wind Variable Wind from North

Today
High -- | Low -- °F
--% Chance of Precip.
Yesterday
High -- | Low -- °F
Precip. -- in
7:02 AM 8:12 PM
Waning Gibbous, 90% visible
Pressure 30.08 in
Visibility 10.0 miles
Clouds Mostly Cloudy 2200 ft
Dew Point 62 °F
Humidity 97%
Rainfall 0.00 in
Snow Depth Not available.
UV 0 out of 12
Pollen 10.50 out of 12
Air Quality Not available.
Flu Activity Not available.
SPECI KLAN 010908Z 00000KT 10SM BKN022 17/17 A3008 RMK AO2 T01720167
Pressure 30.08 in
Visibility 10.0 miles
Clouds Mostly Cloudy 2200 ft
Dew Point 62 °F
Humidity 97%
Rainfall 0.00 in
Snow Depth Not available.
UV 0 out of 12
Pollen 10.50 out of 12
Air Quality Not available.
Flu Activity Not available.
SPECI KLAN 010908Z 00000KT 10SM BKN022 17/17 A3008 RMK AO2 T01720167

10-Day Weather Forecast

×

Almanac

Astronomy

Sep. 01, 2015 Rise Set
Actual Time
Civil Twilight
Nautical Twilight
Astronomical Twilight
Moon
Length of Visible Light
Length of Day
Tomorrow will be .
, % of the Moon is Illuminated

Today's Extremes

State Highs State Lows

Community

WunderPhotos

Upload Photos

1,851,490 photos uploaded!

WunderBlogs® & News

Nearby

Air Quality

  Air Quality AQ Index Pollutant
Not available.

Snow Depth

Station Depth Elevation

Earthquake Activity

City Distance Mag. Time & Date
Minimum magnitude displayed is 2.5.

Coastal Water Temperatures

Place Temperature

Stations

Nearby Weather Stations

Station Location Temp. Windchill Dew Point Humidity Wind Precip. Elev Updated Type